createdAt,value
2019-03-22T00:00:42.179Z,6.70
2019-03-22T00:03:13.121Z,6.64
2019-03-22T00:05:44.025Z,6.64
2019-03-22T00:08:15.126Z,6.61
2019-03-22T00:10:46.173Z,6.60
2019-03-22T00:13:17.844Z,6.58
2019-03-22T00:15:49.257Z,6.54
2019-03-22T00:18:20.324Z,6.52
2019-03-22T00:20:51.412Z,6.49
2019-03-22T00:23:22.614Z,6.47
2019-03-22T00:25:53.631Z,6.46
2019-03-22T00:28:24.690Z,6.41
2019-03-22T00:30:55.689Z,6.37
2019-03-22T00:33:27.061Z,6.33
2019-03-22T00:35:58.162Z,6.27
2019-03-22T00:38:29.657Z,6.25
2019-03-22T00:41:00.779Z,6.26
2019-03-22T00:43:31.848Z,6.27
2019-03-22T00:46:02.960Z,6.05
2019-03-22T00:48:33.826Z,5.96
2019-03-22T00:51:13.649Z,6.01
2019-03-22T00:53:44.542Z,5.92
2019-03-22T00:56:15.874Z,5.90
2019-03-22T00:58:46.922Z,5.96
2019-03-22T01:01:20.402Z,6.03
2019-03-22T01:03:51.341Z,6.03
2019-03-22T01:06:33.643Z,6.00
2019-03-22T01:09:06.127Z,5.99
2019-03-22T01:11:37.121Z,6.01
2019-03-22T01:14:08.661Z,5.96
2019-03-22T01:16:40.859Z,5.92
2019-03-22T01:19:12.081Z,5.71
2019-03-22T01:21:43.584Z,5.75
2019-03-22T01:24:15.334Z,5.84
2019-03-22T01:26:46.740Z,5.83
2019-03-22T01:29:17.731Z,5.77
2019-03-22T01:31:48.974Z,5.72
2019-03-22T01:34:19.951Z,5.70
2019-03-22T01:36:52.704Z,5.62
2019-03-22T01:39:24.236Z,5.54
2019-03-22T01:41:55.682Z,5.49
2019-03-22T01:44:26.587Z,5.47
2019-03-22T01:46:57.827Z,5.46
2019-03-22T01:49:28.779Z,5.50
2019-03-22T01:52:00.294Z,5.52
2019-03-22T01:54:31.364Z,5.53
2019-03-22T01:57:02.376Z,5.51
2019-03-22T01:59:33.383Z,5.46
2019-03-22T02:02:33.617Z,5.47
2019-03-22T02:05:20.441Z,5.47
2019-03-22T02:07:51.983Z,5.41
2019-03-22T02:10:39.825Z,5.40
2019-03-22T02:13:11.714Z,5.44
2019-03-22T02:15:43.011Z,5.44
2019-03-22T02:18:14.140Z,5.39
2019-03-22T02:20:45.767Z,5.27
2019-03-22T02:23:16.693Z,5.26
2019-03-22T02:25:47.931Z,5.35
2019-03-22T02:28:20.990Z,5.37
2019-03-22T02:30:52.068Z,5.36
2019-03-22T02:33:23.859Z,5.34
2019-03-22T02:35:54.932Z,5.34
2019-03-22T02:38:26.073Z,5.34
2019-03-22T02:40:57.068Z,5.34
2019-03-22T02:43:28.913Z,5.34
2019-03-22T02:46:00.143Z,5.35
2019-03-22T02:48:31.110Z,5.37
2019-03-22T02:51:02.194Z,5.35
2019-03-22T02:53:33.467Z,5.30
2019-03-22T02:56:05.598Z,5.22
2019-03-22T02:58:37.013Z,5.22
2019-03-22T03:01:07.980Z,5.16
2019-03-22T03:03:38.944Z,5.13
2019-03-22T03:06:11.299Z,5.06
2019-03-22T03:08:42.268Z,5.06
2019-03-22T03:11:13.687Z,5.00
2019-03-22T03:13:44.727Z,5.02
2019-03-22T03:16:15.693Z,5.02
2019-03-22T03:18:46.978Z,5.03
2019-03-22T03:21:19.959Z,4.99
2019-03-22T03:23:50.990Z,4.96
2019-03-22T03:26:22.299Z,4.92
2019-03-22T03:28:54.313Z,4.92
2019-03-22T03:31:26.079Z,4.92
2019-03-22T03:33:57.288Z,4.90
2019-03-22T03:36:29.387Z,4.84
2019-03-22T03:39:00.270Z,4.79
2019-03-22T03:41:32.434Z,4.71
2019-03-22T03:44:03.424Z,4.67
2019-03-22T03:46:34.197Z,4.67
2019-03-22T03:49:05.176Z,4.59
2019-03-22T03:51:36.052Z,4.50
2019-03-22T03:54:07.111Z,4.53
2019-03-22T03:56:37.950Z,4.56
2019-03-22T03:59:08.839Z,4.55
2019-03-22T04:01:40.329Z,4.53
2019-03-22T04:04:11.203Z,4.53
2019-03-22T04:06:42.401Z,4.53
2019-03-22T04:09:13.312Z,4.50
2019-03-22T04:11:44.131Z,4.44
2019-03-22T04:14:15.127Z,4.40
2019-03-22T04:16:45.980Z,4.40
2019-03-22T04:19:17.292Z,4.37
2019-03-22T04:21:48.317Z,4.38
2019-03-22T04:24:19.754Z,4.34
2019-03-22T04:26:50.600Z,4.32
2019-03-22T04:29:21.582Z,4.36
2019-03-22T04:31:52.473Z,4.44
2019-03-22T04:34:23.409Z,4.42
2019-03-22T04:36:54.900Z,4.36
2019-03-22T04:39:26.549Z,4.31
2019-03-22T04:41:57.495Z,4.27
2019-03-22T04:44:28.317Z,4.24
2019-03-22T04:46:59.960Z,4.24
2019-03-22T04:49:33.040Z,4.17
2019-03-22T04:52:06.714Z,4.18
2019-03-22T04:54:39.877Z,4.17
2019-03-22T04:57:13.373Z,4.15
2019-03-22T04:59:50.754Z,4.15
2019-03-22T05:02:22.472Z,4.10
2019-03-22T05:04:54.510Z,4.06
2019-03-22T05:07:25.517Z,4.08
2019-03-22T05:09:57.352Z,4.05
2019-03-22T05:12:28.292Z,4.06
2019-03-22T05:14:59.562Z,4.06
2019-03-22T05:17:32.748Z,4.06
2019-03-22T05:20:05.083Z,4.09
2019-03-22T05:22:38.745Z,4.15
2019-03-22T05:25:12.045Z,4.24
2019-03-22T05:27:44.737Z,4.35
2019-03-22T05:30:42.961Z,4.62
2019-03-22T05:33:14.299Z,4.90
2019-03-22T05:35:45.474Z,5.01
2019-03-22T05:38:16.427Z,5.13
2019-03-22T05:40:47.270Z,5.64
2019-03-22T05:43:18.655Z,6.09
2019-03-22T05:45:49.539Z,6.58
2019-03-22T05:48:20.990Z,6.71
2019-03-22T05:50:52.768Z,6.93
2019-03-22T05:53:39.323Z,7.23
2019-03-22T05:56:10.251Z,7.64
2019-03-22T05:58:40.978Z,8.18
2019-03-22T06:01:12.524Z,8.53
2019-03-22T06:03:51.475Z,8.97
2019-03-22T06:06:24.855Z,9.51
2019-03-22T06:08:55.687Z,10.01
2019-03-22T06:11:26.617Z,10.67
2019-03-22T06:13:57.836Z,10.99
2019-03-22T06:16:29.924Z,11.42
2019-03-22T06:19:01.137Z,11.79
2019-03-22T06:21:32.562Z,11.75
2019-03-22T06:24:04.951Z,11.75
2019-03-22T06:26:36.128Z,12.39
2019-03-22T06:29:07.068Z,12.93
2019-03-22T06:31:38.793Z,12.96
2019-03-22T06:34:09.685Z,12.38
2019-03-22T06:36:40.734Z,12.36
2019-03-22T06:39:15.800Z,12.68
2019-03-22T06:41:46.692Z,13.09
2019-03-22T06:44:21.344Z,13.71
2019-03-22T06:46:57.524Z,13.81
2019-03-22T06:49:29.160Z,13.13
2019-03-22T06:52:01.977Z,12.85
2019-03-22T06:54:33.109Z,12.45
2019-03-22T06:57:04.364Z,12.55
2019-03-22T06:59:35.611Z,13.03
2019-03-22T07:02:07.817Z,13.51
2019-03-22T07:04:39.218Z,14.20
2019-03-22T07:07:10.167Z,14.25
2019-03-22T07:09:41.456Z,13.86
2019-03-22T07:12:12.557Z,14.24
2019-03-22T07:14:43.851Z,14.38
2019-03-22T07:17:15.269Z,14.37
2019-03-22T07:19:48.589Z,14.52
2019-03-22T07:22:19.448Z,14.71
2019-03-22T07:24:50.791Z,14.49
2019-03-22T07:27:21.624Z,14.31
2019-03-22T07:29:52.486Z,14.38
2019-03-22T07:32:23.278Z,14.67
2019-03-22T07:34:55.150Z,14.62
2019-03-22T07:37:26.057Z,14.74
2019-03-22T07:39:57.488Z,15.46
2019-03-22T07:42:28.471Z,15.80
2019-03-22T07:44:59.418Z,16.02
2019-03-22T07:47:31.046Z,16.42
2019-03-22T07:50:02.289Z,16.54
2019-03-22T07:52:36.442Z,16.74
2019-03-22T07:55:12.817Z,17.01
2019-03-22T07:57:44.014Z,16.82
2019-03-22T08:00:29.862Z,16.78
2019-03-22T08:02:51.886Z,16.89
2019-03-22T08:05:24.148Z,16.85
2019-03-22T08:07:56.385Z,16.80
2019-03-22T08:10:27.388Z,16.94
2019-03-22T08:13:00.629Z,17.06
2019-03-22T08:15:38.686Z,16.90
2019-03-22T08:18:10.774Z,17.29
2019-03-22T08:20:44.116Z,17.78
2019-03-22T08:23:23.615Z,18.35
2019-03-22T08:25:55.027Z,18.38
2019-03-22T08:28:30.028Z,18.82
2019-03-22T08:31:01.502Z,19.64
2019-03-22T08:33:34.065Z,19.90
2019-03-22T08:36:05.656Z,20.20
2019-03-22T08:38:36.905Z,21.44
2019-03-22T08:41:09.242Z,21.53
2019-03-22T08:43:41.022Z,21.46
2019-03-22T08:46:13.403Z,20.59
2019-03-22T08:48:45.939Z,21.79
2019-03-22T08:51:17.820Z,22.90
2019-03-22T08:53:55.468Z,23.12
2019-03-22T08:56:26.354Z,23.37
2019-03-22T08:58:58.278Z,22.66
2019-03-22T09:01:31.207Z,22.73
2019-03-22T09:04:03.431Z,23.43
2019-03-22T09:06:35.466Z,23.20
2019-03-22T09:09:09.084Z,23.45
2019-03-22T09:11:41.682Z,23.43
2019-03-22T09:14:13.423Z,24.10
2019-03-22T09:16:45.056Z,24.09
2019-03-22T09:19:18.023Z,23.55
2019-03-22T09:21:50.404Z,23.39
2019-03-22T09:24:21.555Z,23.47
2019-03-22T09:26:53.633Z,24.12
2019-03-22T09:29:33.402Z,24.55
2019-03-22T09:32:06.038Z,24.84
2019-03-22T09:34:37.609Z,25.03
2019-03-22T09:37:09.373Z,25.05
2019-03-22T09:39:40.763Z,25.15
2019-03-22T09:42:13.315Z,24.55
2019-03-22T09:44:45.714Z,24.62
2019-03-22T09:47:17.636Z,24.83
2019-03-22T09:49:51.367Z,24.08
2019-03-22T09:52:24.135Z,23.79
2019-03-22T09:54:56.109Z,24.26
2019-03-22T09:57:29.334Z,23.97
2019-03-22T10:00:02.905Z,23.62
2019-03-22T10:02:34.510Z,23.27
2019-03-22T10:05:06.967Z,23.89
2019-03-22T10:07:38.879Z,23.90
2019-03-22T10:10:22.618Z,23.64
2019-03-22T10:12:58.727Z,22.64
2019-03-22T10:15:34.399Z,23.07
2019-03-22T10:18:07.670Z,23.64
2019-03-22T10:20:40.158Z,24.47
2019-03-22T10:23:11.270Z,24.21
2019-03-22T10:25:43.496Z,24.81
2019-03-22T10:28:17.857Z,23.15
2019-03-22T10:30:51.073Z,23.56
2019-03-22T10:33:24.633Z,22.88
2019-03-22T10:36:00.050Z,23.25
2019-03-22T10:38:32.377Z,22.76
2019-03-22T10:41:07.240Z,22.75
2019-03-22T10:43:41.539Z,22.70
2019-03-22T10:46:13.378Z,22.50
2019-03-22T10:48:49.586Z,22.68
2019-03-22T10:51:25.106Z,22.79
2019-03-22T10:53:58.313Z,23.14
2019-03-22T10:56:31.279Z,22.52
2019-03-22T10:59:06.722Z,23.04
2019-03-22T11:01:51.987Z,23.94
2019-03-22T11:04:13.021Z,23.81
2019-03-22T11:06:46.009Z,23.49
2019-03-22T11:09:26.585Z,22.72
2019-03-22T11:11:58.979Z,22.80
2019-03-22T11:14:32.548Z,23.68
2019-03-22T11:17:04.882Z,23.24
2019-03-22T11:19:38.411Z,22.97
2019-03-22T11:22:11.269Z,22.86
2019-03-22T11:24:43.776Z,22.87
2019-03-22T11:27:16.757Z,23.52
2019-03-22T11:29:49.223Z,23.42
2019-03-22T11:32:21.361Z,23.38
2019-03-22T11:34:53.408Z,23.85
2019-03-22T11:37:25.902Z,23.84
2019-03-22T11:39:58.105Z,23.89
2019-03-22T11:42:32.977Z,23.53
2019-03-22T11:45:04.759Z,23.33
2019-03-22T11:47:36.162Z,23.90
2019-03-22T11:50:09.499Z,24.14
2019-03-22T11:52:43.157Z,24.01
2019-03-22T11:55:14.749Z,23.99
2019-03-22T11:57:47.981Z,24.55
2019-03-22T12:00:23.816Z,24.52
2019-03-22T12:02:58.609Z,24.56
2019-03-22T12:05:40.068Z,24.53
2019-03-22T12:08:04.357Z,24.62
2019-03-22T12:10:37.767Z,24.71
2019-03-22T12:13:08.941Z,24.75
2019-03-22T12:15:40.747Z,24.66
2019-03-22T12:18:11.752Z,24.91
2019-03-22T12:20:44.049Z,25.30
2019-03-22T12:23:16.067Z,24.68
2019-03-22T12:25:48.655Z,25.16
2019-03-22T12:28:19.775Z,24.95
2019-03-22T12:30:51.219Z,24.44
2019-03-22T12:33:22.052Z,24.61
2019-03-22T12:35:53.246Z,24.55
2019-03-22T12:38:24.417Z,23.79
2019-03-22T12:40:55.776Z,24.30
2019-03-22T12:43:27.012Z,23.89
2019-03-22T12:45:58.227Z,23.39
2019-03-22T12:48:30.506Z,23.22
2019-03-22T12:51:05.214Z,23.57
2019-03-22T12:53:38.486Z,23.26
2019-03-22T12:56:12.818Z,24.05
2019-03-22T12:58:46.750Z,23.46
2019-03-22T13:01:22.895Z,23.24
2019-03-22T13:03:57.384Z,23.72
2019-03-22T13:06:28.655Z,23.35
2019-03-22T13:09:01.081Z,22.89
2019-03-22T13:11:32.712Z,23.26
2019-03-22T13:14:04.470Z,23.61
2019-03-22T13:16:35.479Z,23.86
2019-03-22T13:19:09.877Z,23.45
2019-03-22T13:21:41.283Z,23.33
2019-03-22T13:24:12.840Z,23.27
2019-03-22T13:26:44.830Z,22.85
2019-03-22T13:29:17.759Z,22.67
2019-03-22T13:31:51.351Z,22.77
2019-03-22T13:34:23.242Z,23.00
2019-03-22T13:36:56.912Z,23.13
2019-03-22T13:39:29.454Z,23.17
2019-03-22T13:42:03.691Z,23.50
2019-03-22T13:44:36.106Z,23.96
2019-03-22T13:47:09.740Z,23.66
2019-03-22T13:49:40.793Z,23.12
2019-03-22T13:52:14.256Z,22.82
2019-03-22T13:54:45.916Z,23.21
2019-03-22T13:57:16.812Z,23.18
2019-03-22T13:59:48.512Z,23.15
2019-03-22T14:02:19.622Z,23.25
2019-03-22T14:04:51.140Z,23.37
2019-03-22T14:07:22.701Z,23.33
2019-03-22T14:09:53.744Z,23.30
2019-03-22T14:12:25.571Z,23.40
2019-03-22T14:14:57.489Z,23.84
2019-03-22T14:17:29.055Z,24.27
2019-03-22T14:20:10.452Z,23.44
2019-03-22T14:22:34.934Z,23.31
2019-03-22T14:25:06.782Z,23.35
2019-03-22T14:27:38.828Z,23.57
2019-03-22T14:30:10.649Z,23.37
2019-03-22T14:32:42.632Z,22.92
2019-03-22T14:35:16.328Z,22.55
2019-03-22T14:37:51.484Z,22.15
2019-03-22T14:40:24.254Z,22.44
2019-03-22T14:42:59.307Z,22.78
2019-03-22T14:45:36.004Z,22.57
2019-03-22T14:48:08.283Z,22.20
2019-03-22T14:50:39.479Z,22.20
2019-03-22T14:53:13.174Z,22.00
2019-03-22T14:55:45.996Z,22.24
2019-03-22T14:58:19.889Z,22.08
2019-03-22T15:00:52.963Z,21.99
2019-03-22T15:03:27.583Z,21.55
2019-03-22T15:05:59.697Z,21.47
2019-03-22T15:08:34.490Z,21.47
2019-03-22T15:11:06.598Z,21.23
2019-03-22T15:14:03.060Z,21.15
2019-03-22T15:16:53.448Z,21.10
2019-03-22T15:19:54.525Z,21.05
2019-03-22T15:22:45.876Z,20.90
2019-03-22T15:25:33.730Z,20.76
2019-03-22T15:28:30.235Z,21.03
2019-03-22T15:31:20.029Z,20.88
2019-03-22T15:34:17.682Z,20.96
2019-03-22T15:37:06.893Z,20.83
2019-03-22T15:39:56.336Z,20.86
2019-03-22T15:42:29.701Z,20.67
2019-03-22T15:45:01.111Z,20.55
2019-03-22T15:47:32.353Z,20.38
2019-03-22T15:50:04.762Z,20.39
2019-03-22T15:52:38.220Z,20.40
2019-03-22T15:55:13.345Z,20.20
2019-03-22T15:57:45.792Z,20.16
2019-03-22T16:00:20.642Z,20.00
2019-03-22T16:02:53.310Z,19.96
2019-03-22T16:05:25.206Z,19.73
2019-03-22T16:07:56.919Z,19.60
2019-03-22T16:10:29.378Z,19.67
2019-03-22T16:13:00.940Z,19.60
2019-03-22T16:15:34.100Z,19.63
2019-03-22T16:18:05.804Z,19.58
2019-03-22T16:20:37.128Z,19.41
2019-03-22T16:23:08.132Z,19.29
2019-03-22T16:25:39.865Z,19.19
2019-03-22T16:28:12.384Z,19.17
2019-03-22T16:30:45.278Z,19.00
2019-03-22T16:33:16.322Z,18.93
2019-03-22T16:35:50.892Z,18.79
2019-03-22T16:38:22.127Z,18.65
2019-03-22T16:40:56.499Z,18.55
2019-03-22T16:43:30.275Z,18.52
2019-03-22T16:46:10.884Z,18.30
2019-03-22T16:48:47.421Z,18.37
2019-03-22T16:51:23.498Z,18.27
2019-03-22T16:53:55.210Z,18.18
2019-03-22T16:56:27.209Z,18.02
2019-03-22T16:58:59.090Z,18.06
2019-03-22T17:01:31.888Z,17.88
2019-03-22T17:04:04.611Z,17.88
2019-03-22T17:06:36.522Z,17.84
2019-03-22T17:09:09.888Z,17.68
2019-03-22T17:11:41.524Z,17.66
2019-03-22T17:14:13.965Z,17.47
2019-03-22T17:16:45.189Z,17.51
2019-03-22T17:19:19.946Z,17.34
2019-03-22T17:21:51.637Z,17.23
2019-03-22T17:24:24.874Z,17.07
2019-03-22T17:26:58.636Z,17.01
2019-03-22T17:29:30.324Z,16.85
2019-03-22T17:32:02.343Z,16.79
2019-03-22T17:34:35.766Z,16.64
2019-03-22T17:37:07.059Z,16.56
2019-03-22T17:39:38.806Z,16.53
2019-03-22T17:42:10.927Z,16.53
2019-03-22T17:44:42.081Z,16.35
2019-03-22T17:47:14.321Z,16.25
2019-03-22T17:49:48.402Z,16.24
2019-03-22T17:52:18.748Z,16.10
2019-03-22T17:54:50.177Z,15.95
2019-03-22T17:57:21.814Z,15.93
2019-03-22T17:59:54.484Z,15.90
2019-03-22T18:02:27.314Z,15.84
2019-03-22T18:04:59.266Z,15.79
2019-03-22T18:07:32.220Z,15.77
2019-03-22T18:10:05.245Z,15.72
2019-03-22T18:12:39.004Z,15.63
2019-03-22T18:15:14.009Z,15.47
2019-03-22T18:17:48.011Z,15.55
2019-03-22T18:20:20.055Z,15.44
2019-03-22T18:22:52.135Z,15.40
2019-03-22T18:25:27.269Z,15.32
2019-03-22T18:28:01.296Z,15.34
2019-03-22T18:30:37.684Z,15.32
2019-03-22T18:33:12.974Z,15.27
2019-03-22T18:35:45.467Z,15.24
2019-03-22T18:38:18.039Z,15.19
2019-03-22T18:40:49.658Z,15.11
2019-03-22T18:43:21.128Z,14.97
2019-03-22T18:45:54.688Z,14.91
2019-03-22T18:48:27.136Z,14.87
2019-03-22T18:50:59.957Z,14.79
2019-03-22T18:53:33.885Z,14.66
2019-03-22T18:56:05.347Z,14.74
2019-03-22T18:58:36.643Z,14.70
2019-03-22T19:01:08.192Z,14.62
2019-03-22T19:03:41.221Z,14.53
2019-03-22T19:06:15.330Z,14.49
2019-03-22T19:08:46.758Z,14.50
2019-03-22T19:11:19.199Z,14.39
2019-03-22T19:13:50.846Z,14.32
2019-03-22T19:16:22.023Z,14.22
2019-03-22T19:18:55.960Z,14.20
2019-03-22T19:21:31.333Z,14.12
2019-03-22T19:24:03.805Z,14.13
2019-03-22T19:26:37.530Z,14.19
2019-03-22T19:29:11.186Z,14.07
2019-03-22T19:31:46.502Z,14.05
2019-03-22T19:34:19.030Z,14.07
2019-03-22T19:36:56.931Z,13.93
2019-03-22T19:39:34.780Z,14.02
2019-03-22T19:42:05.947Z,13.93
2019-03-22T19:44:39.416Z,13.83
2019-03-22T19:47:12.272Z,13.76
2019-03-22T19:49:43.556Z,13.73
2019-03-22T19:52:16.384Z,13.74
2019-03-22T19:54:49.253Z,13.71
2019-03-22T19:57:22.267Z,13.62
2019-03-22T19:59:55.042Z,13.61
2019-03-22T20:02:26.960Z,13.55
2019-03-22T20:05:04.687Z,13.59
2019-03-22T20:07:32.091Z,13.59
2019-03-22T20:10:07.064Z,13.58
2019-03-22T20:12:45.893Z,13.52
2019-03-22T20:15:19.257Z,13.56
2019-03-22T20:17:59.395Z,13.37
2019-03-22T20:20:29.701Z,13.47
2019-03-22T20:23:04.415Z,13.34
2019-03-22T20:25:38.058Z,13.29
2019-03-22T20:28:09.140Z,13.27
2019-03-22T20:30:43.973Z,13.18
2019-03-22T20:33:15.990Z,13.15
2019-03-22T20:35:47.457Z,13.01
2019-03-22T20:38:19.528Z,12.84
2019-03-22T20:40:53.967Z,12.83
2019-03-22T20:43:25.215Z,12.67
2019-03-22T20:45:57.482Z,12.65
2019-03-22T20:48:28.779Z,12.70
2019-03-22T20:51:00.992Z,12.54
2019-03-22T20:53:35.173Z,12.52
2019-03-22T20:56:06.916Z,12.42
2019-03-22T20:58:39.030Z,12.37
2019-03-22T21:01:11.274Z,12.29
2019-03-22T21:03:48.252Z,12.24
2019-03-22T21:06:22.095Z,12.18
2019-03-22T21:08:53.639Z,12.20
2019-03-22T21:11:25.554Z,12.07
2019-03-22T21:13:57.549Z,12.05
2019-03-22T21:16:31.259Z,12.02
2019-03-22T21:19:04.997Z,12.02
2019-03-22T21:21:41.468Z,11.98
2019-03-22T21:24:15.218Z,11.91
2019-03-22T21:26:50.968Z,11.85
2019-03-22T21:29:22.931Z,11.81
2019-03-22T21:31:55.392Z,11.75
2019-03-22T21:34:31.020Z,11.69
2019-03-22T21:37:04.242Z,11.58
2019-03-22T21:39:42.601Z,11.54
2019-03-22T21:42:16.181Z,11.51
2019-03-22T21:44:49.394Z,11.41
2019-03-22T21:47:22.428Z,11.35
2019-03-22T21:49:54.816Z,11.29
2019-03-22T21:52:26.890Z,11.23
2019-03-22T21:54:58.209Z,11.17
2019-03-22T21:57:32.411Z,11.13
2019-03-22T22:00:05.041Z,11.02
2019-03-22T22:02:38.633Z,11.00
2019-03-22T22:05:10.019Z,10.91
2019-03-22T22:07:41.612Z,10.85
2019-03-22T22:10:13.481Z,10.76
2019-03-22T22:12:45.909Z,10.73
2019-03-22T22:15:17.592Z,10.68
2019-03-22T22:17:53.342Z,10.54
2019-03-22T22:20:29.173Z,10.47
2019-03-22T22:22:59.646Z,10.47
2019-03-22T22:25:32.806Z,10.48
2019-03-22T22:28:04.777Z,10.44
2019-03-22T22:30:39.761Z,10.43
2019-03-22T22:33:13.527Z,10.39
2019-03-22T22:35:46.918Z,10.38
2019-03-22T22:38:18.642Z,10.29
2019-03-22T22:40:49.787Z,10.30
2019-03-22T22:43:21.094Z,10.29
2019-03-22T22:45:53.411Z,10.27
2019-03-22T22:48:30.469Z,10.15
2019-03-22T22:51:02.552Z,10.10
2019-03-22T22:53:35.002Z,10.06
2019-03-22T22:56:05.995Z,10.05
2019-03-22T22:58:38.575Z,9.97
2019-03-22T23:01:11.026Z,9.92
2019-03-22T23:03:43.722Z,9.85
2019-03-22T23:06:16.019Z,9.88
2019-03-22T23:08:47.289Z,9.91
2019-03-22T23:11:18.264Z,9.86
2019-03-22T23:13:50.285Z,9.79
2019-03-22T23:16:21.843Z,9.80
2019-03-22T23:18:53.501Z,9.75
2019-03-22T23:21:26.586Z,9.70
2019-03-22T23:23:58.393Z,9.69
2019-03-22T23:26:29.885Z,9.65
2019-03-22T23:29:01.987Z,9.62
2019-03-22T23:31:34.133Z,9.58
2019-03-22T23:34:06.532Z,9.52
2019-03-22T23:36:37.806Z,9.50
2019-03-22T23:39:10.988Z,9.46
2019-03-22T23:41:42.394Z,9.48
2019-03-22T23:44:14.478Z,9.47
2019-03-22T23:46:46.380Z,9.42
2019-03-22T23:49:18.089Z,9.45
2019-03-22T23:51:49.415Z,9.37
2019-03-22T23:54:22.996Z,9.34
2019-03-22T23:56:54.470Z,9.36
2019-03-22T23:59:26.065Z,9.34
